Time;durP1;ratioP1;P1;durP2;ratioP2;P2;SDS_P1;SDS_P2;PMS_P1;PMS_P2;Temp;Humidity;BMP_temperature;BMP_pressure;BME280_temperature;BME280_humidity;BME280_pressure;Samples;Min_cycle;Max_cycle;Signal;HPM_P1;HPM_P2
2022/05/23 00:00:35;;;;;;;2.83;1.90;;;;;;;16.72;57.02;99224.22;4982877;28;20054;-44
2022/05/23 00:03:02;;;;;;;2.90;2.13;;;;;;;16.70;57.22;99237.34;4981467;28;20487;-43
2022/05/23 00:05:29;;;;;;;3.30;2.30;;;;;;;16.66;57.21;99228.81;4987217;28;20157;-50
2022/05/23 00:07:59;;;;;;;3.17;2.33;;;;;;;16.64;57.88;99233.22;4985907;28;20046;-44
2022/05/23 00:10:26;;;;;;;2.88;2.08;;;;;;;16.60;57.78;99226.44;4985743;28;20050;-40
2022/05/23 00:12:53;;;;;;;4.63;2.28;;;;;;;16.57;57.65;99209.09;4986225;28;20042;-46
2022/05/23 00:15:20;;;;;;;2.38;1.85;;;;;;;16.54;57.92;99204.00;4985754;28;20136;-45
2022/05/23 00:17:47;;;;;;;1.58;1.33;;;;;;;16.50;57.65;99196.34;4986469;28;20549;-48
2022/05/23 00:20:16;;;;;;;1.95;1.75;;;;;;;16.47;57.60;99193.84;4986410;28;20134;-40
2022/05/23 00:22:42;;;;;;;2.22;1.35;;;;;;;16.42;57.84;99197.50;4962848;28;20074;-44
2022/05/23 00:25:10;;;;;;;2.13;1.90;;;;;;;16.40;57.93;99204.56;4982216;28;20557;-41
2022/05/23 00:27:40;;;;;;;3.67;1.58;;;;;;;16.37;58.19;99204.69;4967963;28;20474;-43
2022/05/23 00:30:12;;;;;;;2.03;1.67;;;;;;;16.34;58.15;99203.97;4979708;28;20054;-43
2022/05/23 00:35:26;;;;;;;2.70;1.27;;;;;;;16.23;57.84;99191.31;4981856;28;20050;-42
2022/05/23 00:37:56;;;;;;;1.98;1.60;;;;;;;16.18;58.03;99184.53;4982845;28;20587;-40
2022/05/23 00:43:13;;;;;;;2.05;1.52;;;;;;;16.12;58.11;99179.56;4987489;28;20053;-40
2022/05/23 00:43:39;;;;;;;3.05;0.52;;;;;;;16.11;57.95;99177.00;4984880;28;20634;-39
2022/05/23 00:46:06;;;;;;;2.25;1.42;;;;;;;16.09;58.59;99173.59;4985646;28;20050;-43
2022/05/23 00:48:34;;;;;;;3.72;1.55;;;;;;;16.05;58.29;99163.25;4983270;28;20050;-38
2022/05/23 00:51:07;;;;;;;1.55;1.00;;;;;;;16.03;58.85;99166.84;4991143;28;20386;-42
2022/05/23 00:56:37;;;;;;;2.10;0.88;;;;;;;16.00;58.63;99149.53;5159265;27;20716;-40
2022/05/23 00:59:29;;;;;;;3.15;1.08;;;;;;;15.96;58.76;99157.53;5080607;28;20501;-42
2022/05/23 01:01:57;;;;;;;1.88;0.90;;;;;;;15.97;58.85;99148.81;5088506;28;20052;-43
2022/05/23 01:04:23;;;;;;;3.60;1.20;;;;;;;15.96;59.38;99149.72;5087472;28;20052;-45
2022/05/23 01:06:50;;;;;;;3.85;1.17;;;;;;;15.93;59.15;99148.91;5083472;28;20671;-46
2022/05/23 01:09:20;;;;;;;3.15;0.73;;;;;;;15.92;58.98;99143.75;5077477;28;20141;-48
2022/05/23 01:11:46;;;;;;;2.28;1.02;;;;;;;15.91;59.18;99142.88;5082459;28;20708;-38
2022/05/23 01:14:13;;;;;;;4.55;1.25;;;;;;;15.90;59.43;99138.56;5094936;28;20094;-47
2022/05/23 01:16:41;;;;;;;1.92;0.80;;;;;;;15.88;59.74;99129.94;5084775;28;20040;-45
2022/05/23 01:19:08;;;;;;;2.85;1.88;;;;;;;15.88;59.69;99135.16;5079982;28;20407;-41
2022/05/23 01:21:59;;;;;;;2.20;0.98;;;;;;;15.85;60.04;99129.22;5083089;28;20078;-43
2022/05/23 01:27:21;;;;;;;1.83;0.77;;;;;;;15.84;60.81;99120.53;5153954;27;20414;-44
2022/05/23 01:29:48;;;;;;;2.83;0.77;;;;;;;15.81;60.25;99125.91;5103556;28;20061;-43
2022/05/23 01:32:16;;;;;;;4.60;0.93;;;;;;;15.79;60.86;99125.97;5106788;27;20502;-46
2022/05/23 01:34:44;;;;;;;2.53;0.75;;;;;;;15.77;60.83;99126.94;5100749;28;20047;-46
2022/05/23 01:37:11;;;;;;;3.58;0.98;;;;;;;15.74;61.28;99116.59;5085791;28;20403;-44
2022/05/23 01:39:38;;;;;;;3.38;0.70;;;;;;;15.70;60.87;99115.03;5086145;28;20044;-42
2022/05/23 01:42:06;;;;;;;1.95;1.02;;;;;;;15.67;60.96;99105.53;5102297;28;20054;-43
2022/05/23 01:44:34;;;;;;;4.03;1.13;;;;;;;15.63;60.68;99094.38;5087944;28;20051;-41
2022/05/23 01:50:03;;;;;;;2.67;2.17;;;;;;;15.58;61.32;99095.47;5119834;27;20533;-42
2022/05/23 01:52:30;;;;;;;2.97;2.20;;;;;;;15.55;61.31;99096.44;5097766;28;20042;-43
2022/05/23 01:54:57;;;;;;;3.10;2.40;;;;;;;15.55;61.65;99086.00;5106118;28;20048;-45
2022/05/23 01:57:24;;;;;;;3.92;2.53;;;;;;;15.51;61.89;99092.25;5100937;28;20055;-41
2022/05/23 02:02:38;;;;;;;3.22;2.70;;;;;;;15.46;61.65;99086.31;5093825;28;20139;-44
2022/05/23 02:05:06;;;;;;;3.40;2.45;;;;;;;15.45;62.29;99092.47;5100868;28;20048;-46
2022/05/23 02:07:33;;;;;;;3.40;2.13;;;;;;;15.44;61.88;99088.16;5099385;28;20047;-47
2022/05/23 02:10:00;;;;;;;4.15;2.58;;;;;;;15.42;61.50;99086.47;5096631;28;20049;-40
2022/05/23 02:12:28;;;;;;;3.42;2.35;;;;;;;15.41;62.02;99089.13;5098354;28;20078;-40
2022/05/23 02:14:55;;;;;;;3.95;2.47;;;;;;;15.40;61.96;99087.44;5102521;28;20048;-41
2022/05/23 02:17:23;;;;;;;4.47;2.30;;;;;;;15.37;62.33;99083.16;5094529;28;20051;-44
2022/05/23 02:20:09;;;;;;;3.10;2.70;;;;;;;15.37;62.31;99074.50;5102584;28;20050;-49
2022/05/23 02:22:37;;;;;;;4.65;2.33;;;;;;;15.35;62.38;99069.34;5098472;28;20048;-39
2022/05/23 02:25:05;;;;;;;3.72;2.15;;;;;;;15.33;61.98;99076.38;5088774;28;20050;-45
2022/05/23 02:27:32;;;;;;;2.65;2.45;;;;;;;15.30;62.23;99076.47;5097921;28;20043;-46
2022/05/23 02:29:59;;;;;;;4.80;2.92;;;;;;;15.27;62.55;99066.19;5099193;28;20048;-42
2022/05/23 02:32:26;;;;;;;3.70;3.33;;;;;;;15.25;62.20;99062.78;5096743;28;20052;-46
2022/05/23 02:34:53;;;;;;;2.85;2.35;;;;;;;15.23;62.15;99065.44;5079191;28;20507;-41
2022/05/23 02:37:20;;;;;;;4.22;3.40;;;;;;;15.19;62.13;99057.81;5079204;28;20053;-43
2022/05/23 02:39:47;;;;;;;2.78;2.50;;;;;;;15.18;62.06;99066.53;5088975;28;20043;-43
2022/05/23 02:42:14;;;;;;;5.55;1.52;;;;;;;15.13;62.76;99059.72;5099921;28;20365;-47
2022/05/23 02:44:41;;;;;;;3.10;2.53;;;;;;;15.11;62.70;99056.34;5068051;28;20041;-47
2022/05/23 02:47:07;;;;;;;3.97;3.03;;;;;;;15.10;63.17;99049.41;5077591;28;20051;-44
2022/05/23 02:49:34;;;;;;;4.20;1.60;;;;;;;15.09;63.02;99055.53;5095366;28;20438;-47
2022/05/23 02:52:02;;;;;;;4.85;2.95;;;;;;;15.06;63.09;99049.59;5102294;28;20074;-44
2022/05/23 02:54:29;;;;;;;3.13;2.45;;;;;;;15.04;63.02;99042.66;5100208;28;20126;-49
2022/05/23 02:56:56;;;;;;;4.78;2.88;;;;;;;15.04;62.95;99042.66;5102951;28;20050;-48
2022/05/23 02:59:23;;;;;;;3.22;2.53;;;;;;;15.04;63.33;99040.03;5101087;28;20115;-41
2022/05/23 03:04:37;;;;;;;5.30;2.92;;;;;;;15.02;63.40;99041.88;5074350;28;20048;-38
2022/05/23 03:07:04;;;;;;;3.47;2.58;;;;;;;15.00;63.88;99035.84;5084964;28;20058;-44
2022/05/23 03:09:32;;;;;;;2.97;1.38;;;;;;;14.99;64.15;99035.91;5085388;28;20492;-42
2022/05/23 03:11:59;;;;;;;8.10;3.38;;;;;;;15.00;63.25;99024.59;5086045;28;20048;-40
2022/05/23 03:14:27;;;;;;;6.65;3.40;;;;;;;15.00;63.43;99021.97;5087582;28;20055;-40
2022/05/23 03:17:00;;;;;;;3.45;2.72;;;;;;;14.98;64.52;99023.78;5090416;28;20732;-47
2022/05/23 03:19:27;;;;;;;4.18;2.65;;;;;;;14.98;64.32;99018.56;5089504;28;20130;-43
2022/05/23 03:27:28;;;;;;;5.07;3.10;;;;;;;14.96;63.55;99026.44;5076057;28;20085;-42
2022/05/23 03:29:55;;;;;;;4.85;3.00;;;;;;;14.97;64.34;99019.50;5090997;28;20046;-42
2022/05/23 03:32:23;;;;;;;5.97;4.03;;;;;;;14.97;63.85;99016.88;5089565;28;20040;-42
2022/05/23 03:34:50;;;;;;;4.47;3.45;;;;;;;14.97;64.72;99011.66;5087991;28;20134;-39
2022/05/23 03:37:18;;;;;;;3.47;2.58;;;;;;;14.96;63.89;99015.19;5087320;28;20105;-40
2022/05/23 03:39:45;;;;;;;3.05;1.83;;;;;;;14.96;63.85;99020.41;5088448;28;20903;-42
2022/05/23 03:42:12;;;;;;;3.55;2.85;;;;;;;14.96;64.72;99015.19;5081907;28;20044;-44
2022/05/23 03:44:39;;;;;;;5.43;2.95;;;;;;;14.96;64.25;99020.41;5092510;28;20055;-42
2022/05/23 03:47:06;;;;;;;3.72;1.13;;;;;;;14.96;64.74;99009.97;5087423;28;20412;-43
2022/05/23 03:49:33;;;;;;;3.42;2.75;;;;;;;14.95;64.84;99014.31;5086775;28;20219;-43
2022/05/23 03:52:00;;;;;;;5.47;3.05;;;;;;;14.95;64.63;99008.25;5084242;28;20040;-42
2022/05/23 03:54:27;;;;;;;3.17;2.53;;;;;;;14.93;64.74;99004.88;5084991;28;20055;-45
2022/05/23 03:57:03;;;;;;;4.82;3.28;;;;;;;14.88;65.10;99003.28;5088466;28;20059;-46
2022/05/23 03:59:31;;;;;;;3.35;2.65;;;;;;;14.88;64.42;99000.69;5086517;28;20406;-44
2022/05/23 04:01:58;;;;;;;4.28;2.97;;;;;;;14.89;64.67;99001.50;5071024;28;20050;-45
2022/05/23 04:04:28;;;;;;;4.70;3.30;;;;;;;14.87;64.65;98991.16;5086656;28;20475;-41
2022/05/23 04:07:01;;;;;;;2.97;1.50;;;;;;;14.86;64.73;98984.22;5070812;28;20428;-44
2022/05/23 04:09:29;;;;;;;3.97;3.03;;;;;;;14.86;64.46;98984.22;5085303;28;20135;-41
2022/05/23 04:11:57;;;;;;;4.32;2.70;;;;;;;14.87;64.86;98980.75;5084909;28;20062;-49
2022/05/23 04:14:26;;;;;;;4.90;2.92;;;;;;;14.87;64.66;98985.09;5070980;28;20050;-44
2022/05/23 04:16:54;;;;;;;5.45;4.13;;;;;;;14.86;64.76;98979.03;5071585;28;20051;-41
2022/05/23 04:19:22;;;;;;;6.97;3.30;;;;;;;14.86;64.51;98981.63;5086827;28;20052;-38
2022/05/23 04:21:49;;;;;;;3.10;2.72;;;;;;;14.85;65.24;98979.94;5083345;28;20154;-41
2022/05/23 04:24:17;;;;;;;4.53;2.75;;;;;;;14.85;64.68;98979.94;5086173;28;20044;-43
2022/05/23 04:26:44;;;;;;;3.40;2.65;;;;;;;14.86;64.68;98992.06;5067583;28;20052;-41
2022/05/23 04:29:12;;;;;;;4.82;2.97;;;;;;;14.84;65.10;98988.66;5084793;28;20045;-40
2022/05/23 04:31:39;;;;;;;4.15;2.25;;;;;;;14.84;65.07;98980.00;5087624;28;20583;-40
2022/05/23 04:36:53;;;;;;;4.50;3.05;;;;;;;14.81;65.41;98980.97;5073901;28;20078;-41
2022/05/23 04:39:20;;;;;;;4.07;2.58;;;;;;;14.81;65.37;98986.16;5086491;28;20062;-45
2022/05/23 04:41:47;;;;;;;4.65;2.42;;;;;;;14.79;65.18;98982.75;5084043;28;20048;-44
2022/05/23 04:44:15;;;;;;;2.38;2.15;;;;;;;14.79;64.88;98977.53;5086480;28;20126;-45
2022/05/23 04:52:19;;;;;;;2.53;2.25;;;;;;;14.78;65.22;98981.06;5069632;28;20549;-45
2022/05/23 04:54:47;;;;;;;2.40;2.20;;;;;;;14.77;65.23;98976.78;5083510;28;20131;-45
2022/05/23 04:57:14;;;;;;;2.33;2.13;;;;;;;14.77;65.01;98982.81;5086573;28;20048;-39
2022/05/23 04:59:41;;;;;;;3.00;2.05;;;;;;;14.77;65.21;98975.00;5085336;28;20143;-43
2022/05/23 05:02:09;;;;;;;2.38;2.08;;;;;;;14.77;64.96;98979.38;5070660;28;20048;-41
2022/05/23 05:04:35;;;;;;;3.88;1.75;;;;;;;14.76;64.90;98978.47;5066165;28;21252;-44
2022/05/23 05:07:02;;;;;;;2.13;0.93;;;;;;;14.77;65.27;98968.94;5081692;28;20567;-43
2022/05/23 05:09:29;;;;;;;3.35;2.08;;;;;;;14.80;64.96;98963.63;5084551;28;20173;-42
2022/05/23 05:11:55;;;;;;;4.30;1.98;;;;;;;14.79;65.29;98956.69;5084820;28;20112;-39
2022/05/23 05:14:22;;;;;;;3.67;2.95;;;;;;;14.81;65.43;98954.91;5080991;28;20055;-42
2022/05/23 05:16:49;;;;;;;3.28;2.35;;;;;;;14.82;65.20;98950.53;5080861;28;20055;-46
2022/05/23 05:19:16;;;;;;;2.53;1.88;;;;;;;14.83;65.06;98952.22;5065572;28;20040;-41
2022/05/23 05:21:43;;;;;;;4.45;2.08;;;;;;;14.82;64.58;98948.75;5084941;28;20093;-39
2022/05/23 05:24:14;;;;;;;3.50;2.15;;;;;;;14.79;64.79;98946.28;5081970;28;20086;-43
2022/05/23 05:26:40;;;;;;;1.85;1.60;;;;;;;14.80;64.78;98952.34;5083512;28;20048;-41
2022/05/23 05:29:07;;;;;;;2.80;1.70;;;;;;;14.80;64.26;98955.81;5084982;28;20101;-41
2022/05/23 05:31:42;;;;;;;3.67;1.77;;;;;;;14.78;64.74;98957.59;5083194;28;20055;-42
2022/05/23 05:34:18;;;;;;;5.70;2.13;;;;;;;14.77;65.18;98953.31;5066766;28;20051;-43
2022/05/23 05:36:49;;;;;;;1.95;1.63;;;;;;;14.78;64.44;98944.56;5083935;28;20094;-42
2022/05/23 05:39:19;;;;;;;2.40;0.68;;;;;;;14.78;64.61;98940.22;5079677;28;20441;-38
2022/05/23 05:44:33;;;;;;;3.10;0.75;;;;;;;14.85;65.01;98937.38;5014962;27;20414;-40
2022/05/23 05:47:04;;;;;;;1.15;0.63;;;;;;;14.88;64.63;98940.72;5016973;28;20057;-40
2022/05/23 05:49:53;;;;;;;2.08;0.43;;;;;;;14.89;64.45;98942.41;4998700;28;20099;-44
2022/05/23 05:52:24;;;;;;;1.10;0.85;;;;;;;14.93;64.38;98939.69;5006426;28;20101;-44
2022/05/23 05:54:52;;;;;;;5.15;0.80;;;;;;;14.93;64.86;98943.13;5017713;28;20563;-41
2022/05/23 05:57:20;;;;;;;2.88;0.70;;;;;;;14.94;64.79;98946.59;5016947;28;20053;-41
2022/05/23 05:59:49;;;;;;;1.20;0.70;;;;;;;14.94;64.34;98951.81;5015318;28;20543;-41
2022/05/23 06:02:16;;;;;;;2.47;0.68;;;;;;;14.92;64.58;98943.22;5012012;28;20109;-46
2022/05/23 06:04:42;;;;;;;1.77;0.70;;;;;;;14.92;64.72;98945.81;5011055;28;20133;-42
2022/05/23 06:12:51;;;;;;;2.60;0.70;;;;;;;14.85;64.47;98948.66;4996750;28;20445;-42
2022/05/23 06:15:18;;;;;;;3.00;1.02;;;;;;;14.83;65.09;98942.63;5012972;28;20053;-42
2022/05/23 06:17:45;;;;;;;2.97;0.65;;;;;;;14.81;64.43;98934.03;5013785;28;20053;-45
2022/05/23 06:20:13;;;;;;;3.78;0.82;;;;;;;14.76;64.67;98941.16;5023846;28;20169;-45
2022/05/23 06:22:40;;;;;;;2.95;1.02;;;;;;;14.73;64.59;98931.69;5012523;28;20049;-51
2022/05/23 06:25:08;;;;;;;1.25;0.75;;;;;;;14.69;64.50;98924.06;5002303;28;20057;-41
2022/05/23 06:27:36;;;;;;;2.05;1.00;;;;;;;14.64;64.86;98927.69;5006497;28;20521;-45
2022/05/23 06:30:05;;;;;;;3.15;0.75;;;;;;;14.60;64.30;98933.91;5010433;28;20108;-39
2022/05/23 06:32:32;;;;;;;2.08;0.88;;;;;;;14.60;64.69;98936.53;5004267;28;20108;-42
2022/05/23 06:34:59;;;;;;;3.50;1.00;;;;;;;14.63;65.10;98928.56;5011589;28;20041;-39
2022/05/23 06:37:35;;;;;;;3.80;0.90;;;;;;;14.68;64.50;98931.00;5009169;28;20053;-41
2022/05/23 06:40:04;;;;;;;3.40;0.93;;;;;;;14.73;64.23;98931.69;5007730;28;20061;-41
2022/05/23 06:42:32;;;;;;;3.28;0.80;;;;;;;14.77;63.65;98929.84;5007845;28;20053;-39
2022/05/23 06:45:00;;;;;;;5.30;1.50;;;;;;;14.78;64.11;98929.81;5002114;28;20050;-46
2022/05/23 06:47:27;;;;;;;3.17;0.93;;;;;;;14.78;63.44;98921.13;5006854;28;20049;-44
2022/05/23 06:49:54;;;;;;;3.03;0.80;;;;;;;14.82;63.03;98925.31;5009441;28;20046;-44
2022/05/23 06:52:21;;;;;;;2.85;0.98;;;;;;;14.93;63.02;98922.28;5002410;28;20054;-46
2022/05/23 06:54:47;;;;;;;2.00;0.95;;;;;;;15.00;62.66;98922.91;4985349;28;20050;-48
2022/05/23 06:57:14;;;;;;;6.30;0.80;;;;;;;15.06;62.77;98922.66;4979506;28;20125;-42
2022/05/23 06:59:41;;;;;;;4.45;0.80;;;;;;;15.15;62.34;98911.88;4996963;28;20057;-42
2022/05/23 07:02:09;;;;;;;3.50;0.82;;;;;;;15.31;62.34;98908.63;4991067;28;20478;-44
2022/05/23 07:12:57;;;;;;;2.25;0.85;;;;;;;15.81;60.44;98903.97;4989414;28;21126;-41
2022/05/23 07:15:23;;;;;;;3.03;0.98;;;;;;;15.96;61.17;98906.84;4985909;28;20113;-39
2022/05/23 07:17:50;;;;;;;2.53;0.95;;;;;;;16.13;61.04;98898.28;4986702;28;20955;-46
2022/05/23 07:20:17;;;;;;;5.10;1.20;;;;;;;16.30;60.40;98900.16;4987213;28;20042;-41
2022/05/23 07:22:44;;;;;;;3.17;0.63;;;;;;;16.44;60.18;98897.75;4990381;28;20635;-46
2022/05/23 07:25:10;;;;;;;1.92;0.73;;;;;;;16.58;60.06;98894.50;4986607;28;20071;-44
2022/05/23 07:27:37;;;;;;;5.38;1.10;;;;;;;16.69;59.48;98895.78;4980612;28;20051;-43
2022/05/23 07:30:04;;;;;;;4.97;1.92;;;;;;;16.66;59.22;98890.69;4983277;28;20046;-42
2022/05/23 07:32:31;;;;;;;2.30;0.63;;;;;;;16.69;58.97;98901.84;4999457;28;20100;-43
2022/05/23 07:34:57;;;;;;;2.10;0.80;;;;;;;16.77;58.29;98892.81;4987294;28;20113;-43
2022/05/23 07:37:24;;;;;;;3.70;0.85;;;;;;;16.80;58.29;98892.66;5002844;28;20054;-46
2022/05/23 07:39:50;;;;;;;3.75;0.90;;;;;;;16.84;57.59;98894.22;4988485;28;20066;-44
2022/05/23 07:42:18;;;;;;;3.92;0.77;;;;;;;16.92;57.32;98897.31;4990488;28;20132;-40
2022/05/23 07:44:45;;;;;;;5.80;0.70;;;;;;;17.06;57.03;98882.75;4995041;28;20053;-40
2022/05/23 07:47:12;;;;;;;2.17;1.60;;;;;;;17.23;56.71;98881.09;4990755;28;20097;-46
2022/05/23 07:49:38;;;;;;;3.63;1.08;;;;;;;17.36;56.22;98886.56;4987248;28;20790;-41
2022/05/23 07:52:06;;;;;;;2.42;0.82;;;;;;;17.51;56.33;98885.81;4985580;28;20502;-46
2022/05/23 08:02:53;;;;;;;2.20;0.65;;;;;;;18.04;54.80;98871.78;4993495;28;20475;-43
2022/05/23 08:05:20;;;;;;;2.80;0.73;;;;;;;18.17;53.86;98865.00;4984619;28;20325;-43
2022/05/23 08:07:47;;;;;;;3.10;1.00;;;;;;;18.29;53.82;98853.00;4988342;28;20422;-42
2022/05/23 08:10:13;;;;;;;2.78;1.27;;;;;;;18.47;53.24;98856.41;4991985;28;20057;-41
2022/05/23 08:12:46;;;;;;;2.83;1.13;;;;;;;18.59;52.93;98859.28;4985522;28;20045;-46
2022/05/23 08:15:16;;;;;;;2.30;0.55;;;;;;;18.63;52.43;98860.81;4995505;28;20042;-44
2022/05/23 08:17:42;;;;;;;2.15;1.02;;;;;;;18.67;52.40;98867.56;4995085;28;20448;-43
2022/05/23 08:20:10;;;;;;;2.15;0.50;;;;;;;18.72;52.47;98865.56;4997929;28;20045;-48
2022/05/23 08:22:37;;;;;;;2.97;0.82;;;;;;;18.81;52.78;98863.34;5001670;28;20054;-46
2022/05/23 08:25:04;;;;;;;3.03;0.70;;;;;;;18.80;52.00;98852.00;4990635;28;20053;-43
2022/05/23 08:27:32;;;;;;;4.60;0.70;;;;;;;18.75;51.62;98844.38;4989150;28;20058;-44
2022/05/23 08:30:00;;;;;;;3.55;0.88;;;;;;;18.75;51.65;98844.38;4993054;28;20054;-44
2022/05/23 08:32:26;;;;;;;2.10;0.73;;;;;;;18.71;51.87;98842.88;4988709;28;20097;-41
2022/05/23 08:34:53;;;;;;;4.38;1.13;;;;;;;18.68;51.40;98843.03;4993599;28;20050;-41
2022/05/23 08:37:20;;;;;;;3.35;0.93;;;;;;;18.64;51.70;98841.50;4989448;28;20050;-43
2022/05/23 08:39:47;;;;;;;8.82;1.40;;;;;;;18.61;51.83;98841.69;4980451;28;20112;-43
2022/05/23 08:42:43;;;;;;;3.08;0.60;;;;;;;18.66;52.11;98834.41;4997814;28;20142;-40
2022/05/23 08:45:18;;;;;;;3.88;1.10;;;;;;;18.98;52.35;98829.13;5005200;28;20045;-45
2022/05/23 08:53:33;;;;;;;2.72;0.88;;;;;;;19.12;48.83;98824.91;5014473;27;20900;-45
2022/05/23 08:56:05;;;;;;;3.85;2.03;;;;;;;19.22;50.18;98830.44;5015461;28;20644;-41
2022/05/23 08:58:41;;;;;;;1.60;0.57;;;;;;;19.39;48.92;98832.09;5014208;28;20058;-45
2022/05/23 09:01:12;;;;;;;3.28;0.90;;;;;;;19.51;49.56;98826.09;5011198;28;20116;-43
2022/05/23 09:03:47;;;;;;;3.47;0.80;;;;;;;19.80;49.88;98813.94;5015841;28;20050;-39
2022/05/23 09:06:22;;;;;;;2.13;0.63;;;;;;;20.11;48.88;98814.69;5008320;28;20058;-41
2022/05/23 09:08:53;;;;;;;2.38;0.85;;;;;;;20.28;47.81;98814.50;5017637;28;20050;-39
2022/05/23 09:14:00;;;;;;;3.85;0.88;;;;;;;20.34;47.94;98818.53;5029432;27;20409;-42
2022/05/23 09:16:30;;;;;;;5.10;1.00;;;;;;;20.45;47.31;98820.47;5019023;28;20128;-41
2022/05/23 09:24:20;;;;;;;4.85;2.13;;;;;;;20.53;46.53;98802.41;5022091;28;20127;-43
2022/05/23 09:26:47;;;;;;;4.22;2.42;;;;;;;20.61;46.46;98801.06;5025392;28;20057;-47
2022/05/23 09:29:14;;;;;;;3.20;1.52;;;;;;;20.75;46.03;98801.03;5022784;28;20064;-41
2022/05/23 09:34:34;;;;;;;1.90;0.90;;;;;;;20.91;45.24;98792.16;5031299;27;20414;-42
2022/05/23 09:37:03;;;;;;;2.58;0.75;;;;;;;20.98;45.56;98788.16;5012010;28;20054;-43
2022/05/23 09:39:31;;;;;;;3.72;0.80;;;;;;;21.11;44.99;98785.53;5016346;28;20045;-45
2022/05/23 09:47:44;;;;;;;1.75;0.98;;;;;;;21.91;44.21;98778.41;4984775;28;20509;-46
2022/05/23 09:50:13;;;;;;;4.22;0.80;;;;;;;22.04;43.60;98772.25;5003966;28;20054;-46
2022/05/23 09:53:01;;;;;;;3.53;1.10;;;;;;;22.39;43.52;98775.97;5013318;28;20119;-39
2022/05/23 09:58:09;;;;;;;2.60;0.55;;;;;;;22.56;41.45;98764.22;5029041;28;20395;-45
2022/05/23 10:00:39;;;;;;;3.63;1.20;;;;;;;22.66;40.50;98761.72;5011565;28;20058;-44
2022/05/23 10:03:13;;;;;;;3.28;1.20;;;;;;;22.58;41.04;98763.13;5003464;28;20050;-45
2022/05/23 10:05:44;;;;;;;2.95;0.60;;;;;;;22.57;40.78;98761.47;5006960;28;20052;-43
2022/05/23 10:10:56;;;;;;;2.70;1.00;;;;;;;22.38;40.02;98742.59;5007902;28;20811;-46
2022/05/23 10:13:35;;;;;;;3.50;1.88;;;;;;;22.18;40.01;98752.81;4983391;28;20050;-46
2022/05/23 10:19:05;;;;;;;3.90;0.65;;;;;;;21.74;40.61;98740.06;5022354;28;20402;-48
2022/05/23 10:24:26;;;;;;;4.43;0.70;;;;;;;21.72;40.47;98734.03;5051204;28;20405;-43
2022/05/23 10:37:46;;;;;;;2.90;0.80;;;;;;;21.40;42.23;98726.56;4993147;28;20757;-44
2022/05/23 10:43:20;;;;;;;4.00;1.13;;;;;;;20.98;42.63;98732.91;4960140;28;20050;-50
2022/05/23 10:45:59;;;;;;;2.33;1.02;;;;;;;20.96;42.60;98733.94;4955714;28;20043;-43
2022/05/23 10:59:32;;;;;;;2.03;0.98;;;;;;;20.25;42.65;98727.94;5011644;27;20758;-40
2022/05/23 11:02:38;;;;;;;2.30;0.80;;;;;;;20.12;42.81;98724.38;5019478;28;20112;-46
2022/05/23 11:13:52;;;;;;;2.80;1.48;;;;;;;20.29;42.96;98716.28;5030942;27;20419;-42
2022/05/23 11:21:59;;;;;;;2.53;1.15;;;;;;;20.53;42.00;98718.25;5021753;28;20399;-43
2022/05/23 11:24:35;;;;;;;3.55;0.77;;;;;;;20.65;42.61;98710.47;4993330;28;20053;-45
2022/05/23 11:35:45;;;;;;;2.67;0.43;;;;;;;21.09;42.52;98710.25;4995909;28;20065;-44
2022/05/23 11:38:14;;;;;;;3.67;0.88;;;;;;;21.11;42.42;98711.00;4996911;28;20663;-41
2022/05/23 11:43:37;;;;;;;2.58;1.08;;;;;;;21.16;41.10;98708.88;5031607;28;21501;-45
2022/05/23 11:46:10;;;;;;;3.03;1.45;;;;;;;21.20;41.77;98705.09;5020581;28;20054;-46
2022/05/23 12:21:00;;;;;;;1.73;0.65;;;;;;;21.35;40.96;98699.72;5034665;28;20418;-41
2022/05/23 12:23:45;;;;;;;8.18;1.08;;;;;;;21.31;40.51;98705.19;5030003;28;20047;-43
2022/05/23 12:36:52;;;;;;;4.57;1.98;;;;;;;21.23;41.48;98678.56;5028564;28;20411;-43
2022/05/23 12:59:23;;;;;;;3.40;0.90;;;;;;;22.15;40.42;98673.94;5019785;27;20415;-46
2022/05/23 13:01:59;;;;;;;4.05;0.65;;;;;;;22.18;40.33;98673.69;5013046;28;20046;-42
2022/05/23 13:04:34;;;;;;;2.88;1.05;;;;;;;22.20;39.76;98672.66;4988003;28;20105;-48
2022/05/23 13:09:48;;;;;;;4.57;0.80;;;;;;;22.03;40.02;98671.25;5044896;28;20418;-41
2022/05/23 13:12:27;;;;;;;3.78;0.90;;;;;;;21.93;40.39;98672.88;5009768;28;20056;-48
2022/05/23 16:24:40;;;;;;;2.35;1.83;;;;;;;19.82;44.01;98554.63;5053642;27;20392;-45
2022/05/23 17:38:13;;;;;;;1.30;0.50;;;;;;;16.68;51.15;98586.47;5000081;27;20437;-44
2022/05/23 17:40:40;;;;;;;2.63;0.88;;;;;;;16.59;51.34;98586.94;4992219;28;20104;-45
2022/05/23 17:43:07;;;;;;;2.92;1.08;;;;;;;16.44;50.94;98592.03;4986964;28;20101;-46
2022/05/23 17:45:34;;;;;;;2.17;1.20;;;;;;;16.38;51.19;98589.72;5009514;28;20532;-43
2022/05/23 17:48:06;;;;;;;1.98;1.05;;;;;;;16.22;52.40;98588.78;4993939;28;20058;-44
2022/05/23 17:50:35;;;;;;;3.20;1.70;;;;;;;16.14;52.14;98600.47;4987312;28;20049;-43
2022/05/23 17:53:04;;;;;;;2.10;1.13;;;;;;;16.05;52.83;98601.75;4979738;28;20058;-39
2022/05/23 17:55:30;;;;;;;3.72;1.17;;;;;;;16.03;52.82;98594.91;4993740;28;20047;-41
2022/05/23 17:57:57;;;;;;;1.50;0.80;;;;;;;15.93;53.37;98589.25;4981589;28;20121;-42
2022/05/23 18:00:30;;;;;;;2.55;0.80;;;;;;;15.88;53.55;98586.03;4981040;28;20042;-42
2022/05/23 18:02:57;;;;;;;2.70;0.80;;;;;;;15.84;53.23;98593.16;4982665;28;20506;-43
2022/05/23 18:05:26;;;;;;;1.83;0.60;;;;;;;15.82;53.28;98595.00;4979616;28;20054;-40
2022/05/23 18:10:31;;;;;;;1.00;0.50;;;;;;;15.73;53.32;98592.81;4919352;27;5160642;-86
2022/05/23 18:12:58;;;;;;;0.85;0.43;;;;;;;15.67;53.09;98589.59;5071283;28;20500;-89
2022/05/23 18:21:21;;;;;;;1.75;0.50;;;;;;;15.37;54.47;98584.06;5082907;28;20130;-89
2022/05/23 18:23:51;;;;;;;1.80;0.68;;;;;;;15.33;54.03;98585.94;5110321;28;20071;-89
2022/05/23 18:27:20;;;;;;;0.95;0.30;;;;;;;15.22;54.85;98593.41;5103135;28;20047;-89
2022/05/23 18:29:51;;;;;;;1.90;0.45;;;;;;;15.18;54.82;98592.72;5093248;28;20402;-89
2022/05/23 18:32:24;;;;;;;2.33;0.40;;;;;;;15.12;54.25;98590.38;5089881;28;20082;-89
2022/05/23 18:35:21;;;;;;;0.73;0.43;;;;;;;15.00;56.12;98594.41;5105708;28;20051;-89
2022/05/23 18:38:04;;;;;;;1.60;1.50;;;;;;;14.99;55.33;98597.91;5104791;28;20051;-89
2022/05/23 18:40:34;;;;;;;0.75;0.45;;;;;;;14.97;55.35;98599.75;5109264;28;20126;-90
2022/05/23 18:43:17;;;;;;;0.65;0.45;;;;;;;14.90;56.28;98599.16;5099736;28;20039;-90
2022/05/23 18:49:42;;;;;;;0.57;0.30;;;;;;;14.83;55.29;98582.94;5074246;28;20128;-90
2022/05/23 18:52:40;;;;;;;0.80;0.43;;;;;;;14.83;56.65;98588.13;5086002;28;20040;-90
2022/05/23 18:55:24;;;;;;;0.70;0.50;;;;;;;14.72;57.26;98585.13;5103226;28;20067;-90
2022/05/23 18:58:14;;;;;;;1.83;0.43;;;;;;;14.70;56.54;98587.81;5095868;28;20514;-90
2022/05/23 19:01:07;;;;;;;0.90;0.43;;;;;;;14.62;56.74;98580.31;5103386;28;20123;-89
2022/05/23 19:03:40;;;;;;;0.82;0.60;;;;;;;14.57;57.44;98587.50;5106098;28;20059;-88
2022/05/23 19:06:09;;;;;;;0.80;0.60;;;;;;;14.50;57.43;98581.72;5099861;28;20052;-88
2022/05/23 19:08:44;;;;;;;0.80;0.40;;;;;;;14.44;57.68;98589.78;5082897;28;20125;-89
2022/05/23 19:11:12;;;;;;;1.00;0.73;;;;;;;14.38;57.47;98583.06;5077991;28;20535;-87
2022/05/23 19:14:00;;;;;;;2.25;1.05;;;;;;;14.31;58.02;98586.84;5088431;28;20098;-88
2022/05/23 19:16:47;;;;;;;5.32;0.88;;;;;;;14.27;58.18;98587.88;5088930;28;20535;-88
2022/05/23 19:19:17;;;;;;;2.47;0.93;;;;;;;14.27;58.87;98585.28;5091169;28;20047;-88
2022/05/23 19:21:45;;;;;;;2.40;1.48;;;;;;;14.27;58.61;98585.28;5079452;28;20044;-87
2022/05/23 19:24:12;;;;;;;2.13;0.57;;;;;;;14.26;58.96;98586.19;5071127;28;20051;-89
2022/05/23 19:26:40;;;;;;;4.22;1.50;;;;;;;14.23;58.75;98583.72;5077719;28;20830;-89
2022/05/23 19:29:09;;;;;;;2.15;0.85;;;;;;;14.20;59.51;98589.03;5069350;28;20135;-89
2022/05/23 19:31:50;;;;;;;;;;;;;;;13.98;60.77;98584.69;5068489;28;20051;-89
2022/05/23 19:34:40;;;;;;;2.00;0.85;;;;;;;14.07;58.91;98589.53;5071129;28;19936;-89
2022/05/23 19:42:04;;;;;;;2.35;1.48;;;;;;;14.03;59.76;98595.78;5074875;28;20043;-88
2022/05/23 19:45:03;;;;;;;3.60;1.50;;;;;;;14.06;59.79;98580.06;5069387;28;20354;-88
2022/05/23 19:48:06;;;;;;;2.45;1.30;;;;;;;14.00;60.93;98588.09;5048424;28;20626;-88
2022/05/23 19:50:48;;;;;;;5.57;1.58;;;;;;;14.06;59.92;98598.28;5067441;28;20068;-88
2022/05/23 19:53:22;;;;;;;2.50;1.08;;;;;;;14.06;59.72;98594.81;5066158;28;20565;-89